createdAt,value
2018-03-27T00:00:56.096Z,53.20
2018-03-27T00:03:24.202Z,53.20
2018-03-27T00:05:53.357Z,53.00
2018-03-27T00:08:21.538Z,53.00
2018-03-27T00:10:49.763Z,53.50
2018-03-27T00:13:17.946Z,53.00
2018-03-27T00:15:46.660Z,53.00
2018-03-27T00:18:15.488Z,53.10
2018-03-27T00:20:44.470Z,53.10
2018-03-27T00:23:12.743Z,53.20
2018-03-27T00:25:40.352Z,53.70
2018-03-27T00:28:20.004Z,53.20
2018-03-27T00:30:59.434Z,54.00
2018-03-27T00:33:39.610Z,53.50
2018-03-27T00:36:20.983Z,53.00
2018-03-27T00:39:00.635Z,53.40
2018-03-27T00:44:39.270Z,53.70
2018-03-27T00:47:07.657Z,53.90
2018-03-27T00:49:35.614Z,53.80
2018-03-27T00:52:03.269Z,54.10
2018-03-27T00:54:30.951Z,54.30
2018-03-27T00:56:59.976Z,54.80
2018-03-27T00:59:30.126Z,54.80
2018-03-27T01:01:59.519Z,54.80
2018-03-27T01:04:27.177Z,54.80
2018-03-27T01:06:54.892Z,55.00
2018-03-27T01:09:22.706Z,55.10
2018-03-27T01:11:50.302Z,55.10
2018-03-27T01:14:17.862Z,55.00
2018-03-27T01:16:45.444Z,55.00
2018-03-27T01:19:13.001Z,54.90
2018-03-27T01:21:40.577Z,54.90
2018-03-27T01:24:08.146Z,55.00
2018-03-27T01:26:35.728Z,55.10
2018-03-27T01:29:03.338Z,55.10
2018-03-27T01:31:30.941Z,55.20
2018-03-27T01:33:58.574Z,55.20
2018-03-27T01:36:26.154Z,55.20
2018-03-27T01:38:53.766Z,55.20
2018-03-27T01:41:21.409Z,55.20
2018-03-27T01:43:48.993Z,55.20
2018-03-27T01:46:17.328Z,55.50
2018-03-27T01:48:44.907Z,55.40
2018-03-27T01:51:12.485Z,55.40
2018-03-27T01:53:40.095Z,55.30
2018-03-27T01:56:07.654Z,55.20
2018-03-27T01:58:36.027Z,55.10
2018-03-27T02:01:03.611Z,55.10
2018-03-27T02:03:31.239Z,55.10
2018-03-27T02:05:58.809Z,54.90
2018-03-27T02:08:26.376Z,54.90
2018-03-27T02:10:53.496Z,54.70
2018-03-27T02:13:26.714Z,54.60
2018-03-27T02:15:59.826Z,54.70
2018-03-27T02:18:33.955Z,54.80
2018-03-27T02:21:07.849Z,55.00
2018-03-27T02:23:35.523Z,54.90
2018-03-27T02:26:03.103Z,55.00
2018-03-27T02:28:30.700Z,55.10
2018-03-27T02:30:59.032Z,55.10
2018-03-27T02:33:26.649Z,55.10
2018-03-27T02:35:55.011Z,55.10
2018-03-27T02:38:22.577Z,55.00
2018-03-27T02:40:50.158Z,55.00
2018-03-27T02:43:17.755Z,55.10
2018-03-27T02:45:46.078Z,55.00
2018-03-27T02:48:13.663Z,55.00
2018-03-27T02:50:41.231Z,55.00
2018-03-27T02:53:08.833Z,55.00
2018-03-27T02:55:36.413Z,55.00
2018-03-27T02:58:04.013Z,54.90
2018-03-27T03:00:32.396Z,54.90
2018-03-27T03:02:59.932Z,54.80
2018-03-27T03:05:27.543Z,54.90
2018-03-27T03:07:55.864Z,55.10
2018-03-27T03:10:23.493Z,55.10
2018-03-27T03:12:51.092Z,55.10
2018-03-27T03:15:18.680Z,55.20
2018-03-27T03:17:46.257Z,55.10
2018-03-27T03:20:13.815Z,54.90
2018-03-27T03:22:41.417Z,54.90
2018-03-27T03:25:09.012Z,55.10
2018-03-27T03:27:36.587Z,55.00
2018-03-27T03:30:04.151Z,54.90
2018-03-27T03:32:31.761Z,54.90
2018-03-27T03:35:00.177Z,55.10
2018-03-27T03:37:27.772Z,55.00
2018-03-27T03:39:55.350Z,55.10
2018-03-27T03:42:22.939Z,55.30
2018-03-27T03:44:50.531Z,55.40
2018-03-27T03:47:18.875Z,55.40
2018-03-27T03:49:46.462Z,55.40
2018-03-27T03:52:14.030Z,55.50
2018-03-27T03:54:41.634Z,55.70
2018-03-27T03:57:09.234Z,55.80
2018-03-27T03:59:36.818Z,55.90
2018-03-27T04:02:04.399Z,55.90
2018-03-27T04:04:31.991Z,55.90
2018-03-27T04:06:59.545Z,55.80
2018-03-27T04:09:27.168Z,55.80
2018-03-27T04:11:54.750Z,55.80
2018-03-27T04:14:23.114Z,55.80
2018-03-27T04:16:50.673Z,55.80
2018-03-27T04:19:18.277Z,55.90
2018-03-27T04:21:45.856Z,55.90
2018-03-27T04:24:14.193Z,56.40
2018-03-27T04:26:41.761Z,56.00
2018-03-27T04:29:10.114Z,56.60
2018-03-27T04:31:37.738Z,56.00
2018-03-27T04:34:05.364Z,56.00
2018-03-27T04:36:33.688Z,55.90
2018-03-27T04:39:01.257Z,55.80
2018-03-27T04:41:28.860Z,55.80
2018-03-27T04:43:56.417Z,55.90
2018-03-27T04:46:23.976Z,55.70
2018-03-27T04:48:51.560Z,55.70
2018-03-27T04:51:19.755Z,55.80
2018-03-27T04:53:47.429Z,55.80
2018-03-27T04:56:14.974Z,55.80
2018-03-27T04:58:42.594Z,55.80
2018-03-27T05:01:10.161Z,55.70
2018-03-27T05:03:37.830Z,55.60
2018-03-27T05:06:05.406Z,55.70
2018-03-27T05:08:32.981Z,55.70
2018-03-27T05:11:00.598Z,55.70
2018-03-27T05:13:28.930Z,55.60
2018-03-27T05:15:56.555Z,55.50
2018-03-27T05:18:24.914Z,55.70
2018-03-27T05:20:52.584Z,55.60
2018-03-27T05:23:20.165Z,55.80
2018-03-27T05:25:47.762Z,55.70
2018-03-27T05:28:15.344Z,55.70
2018-03-27T05:30:43.691Z,55.70
2018-03-27T05:33:11.247Z,55.70
2018-03-27T05:35:39.063Z,55.70
2018-03-27T05:38:06.658Z,55.70
2018-03-27T05:40:35.126Z,55.70
2018-03-27T05:43:03.469Z,55.80
2018-03-27T05:45:31.070Z,55.70
2018-03-27T05:47:58.680Z,55.70
2018-03-27T05:50:27.046Z,55.70
2018-03-27T05:52:54.672Z,55.60
2018-03-27T05:55:22.251Z,55.90
2018-03-27T05:57:49.807Z,55.70
2018-03-27T06:00:17.378Z,55.80
2018-03-27T06:02:44.997Z,56.20
2018-03-27T06:05:12.615Z,56.90
2018-03-27T06:07:40.190Z,57.10
2018-03-27T06:10:07.774Z,57.20
2018-03-27T06:12:35.360Z,57.10
2018-03-27T06:15:02.980Z,57.30
2018-03-27T06:17:31.305Z,57.20
2018-03-27T06:19:58.997Z,57.20
2018-03-27T06:22:26.593Z,57.40
2018-03-27T06:24:54.259Z,57.50
2018-03-27T06:27:21.906Z,57.70
2018-03-27T06:29:49.502Z,57.70
2018-03-27T06:32:17.066Z,57.80
2018-03-27T06:34:44.634Z,57.80
2018-03-27T06:37:12.217Z,58.00
2018-03-27T06:39:39.808Z,57.90
2018-03-27T06:42:07.467Z,58.00
2018-03-27T06:44:35.010Z,57.90
2018-03-27T06:47:02.599Z,58.00
2018-03-27T06:49:30.153Z,57.90
2018-03-27T06:51:57.736Z,57.80
2018-03-27T06:54:25.344Z,57.70
2018-03-27T06:56:52.956Z,57.70
2018-03-27T06:59:20.545Z,57.60
2018-03-27T07:01:49.005Z,57.50
2018-03-27T07:04:17.413Z,57.50
2018-03-27T07:08:57.532Z,57.60
2018-03-27T07:11:26.188Z,57.40
2018-03-27T07:13:54.766Z,57.40
2018-03-27T07:16:23.909Z,57.20
2018-03-27T07:18:52.008Z,57.90
2018-03-27T07:21:20.231Z,57.40
2018-03-27T07:23:49.056Z,57.50
2018-03-27T07:26:17.307Z,57.50
2018-03-27T07:28:46.638Z,57.60
2018-03-27T07:31:16.011Z,57.70
2018-03-27T07:33:44.185Z,57.90
2018-03-27T07:36:11.855Z,58.00
2018-03-27T07:38:39.466Z,58.10
2018-03-27T07:41:07.064Z,58.10
2018-03-27T07:43:35.408Z,58.10
2018-03-27T07:46:02.994Z,58.00
2018-03-27T07:48:30.566Z,57.80
2018-03-27T07:50:58.204Z,57.70
2018-03-27T07:53:26.590Z,57.80
2018-03-27T07:55:54.182Z,57.70
2018-03-27T07:58:21.827Z,57.70
2018-03-27T08:00:50.550Z,57.70
2018-03-27T08:03:18.254Z,57.70
2018-03-27T08:05:45.828Z,57.70
2018-03-27T08:08:13.509Z,57.70
2018-03-27T08:10:41.739Z,57.60
2018-03-27T08:13:10.169Z,57.20
2018-03-27T08:15:38.154Z,57.70
2018-03-27T08:18:05.750Z,57.20
2018-03-27T08:20:33.476Z,57.10
2018-03-27T08:23:01.106Z,56.90
2018-03-27T08:25:28.733Z,57.20
2018-03-27T08:27:56.318Z,56.80
2018-03-27T08:30:23.886Z,56.80
2018-03-27T08:32:52.581Z,56.80
2018-03-27T08:35:20.370Z,56.70
2018-03-27T08:37:47.960Z,56.10
2018-03-27T08:40:15.523Z,56.00
2018-03-27T08:42:43.091Z,55.60
2018-03-27T08:45:10.670Z,55.40
2018-03-27T08:47:38.603Z,55.70
2018-03-27T08:50:06.941Z,55.80
2018-03-27T08:52:34.532Z,55.70
2018-03-27T08:55:02.231Z,55.70
2018-03-27T08:57:31.084Z,55.90
2018-03-27T08:59:58.720Z,55.80
2018-03-27T09:02:27.876Z,55.80
2018-03-27T09:04:55.439Z,55.80
2018-03-27T09:07:24.429Z,55.80
2018-03-27T09:09:52.179Z,55.80
2018-03-27T09:12:20.587Z,55.10
2018-03-27T09:14:48.258Z,55.00
2018-03-27T09:17:15.871Z,54.60
2018-03-27T09:19:43.432Z,53.90
2018-03-27T09:22:11.036Z,54.00
2018-03-27T09:24:38.891Z,53.80
2018-03-27T09:27:06.541Z,54.00
2018-03-27T09:29:34.138Z,53.60
2018-03-27T09:32:01.944Z,53.40
2018-03-27T09:34:29.518Z,53.00
2018-03-27T09:36:57.437Z,52.70
2018-03-27T09:39:25.112Z,52.00
2018-03-27T09:41:52.755Z,51.90
2018-03-27T09:44:20.404Z,52.10
2018-03-27T09:46:47.984Z,51.60
2018-03-27T09:49:15.663Z,51.10
2018-03-27T09:51:43.276Z,50.90
2018-03-27T09:54:10.917Z,50.80
2018-03-27T09:56:38.632Z,50.70
2018-03-27T09:59:06.300Z,51.10
2018-03-27T10:01:40.698Z,51.00
2018-03-27T10:04:08.339Z,50.70
2018-03-27T10:06:35.971Z,50.30
2018-03-27T10:09:03.700Z,50.30
2018-03-27T10:11:31.295Z,49.90
2018-03-27T10:13:58.957Z,49.60
2018-03-27T10:16:26.698Z,49.10
2018-03-27T10:18:54.270Z,48.70
2018-03-27T10:21:22.321Z,47.70
2018-03-27T10:23:50.739Z,47.40
2018-03-27T10:26:18.428Z,47.40
2018-03-27T10:28:46.047Z,47.40
2018-03-27T10:31:13.652Z,46.80
2018-03-27T10:33:42.016Z,46.10
2018-03-27T10:36:09.604Z,46.00
2018-03-27T10:38:37.362Z,45.10
2018-03-27T10:41:04.966Z,45.00
2018-03-27T10:43:32.776Z,45.00
2018-03-27T10:46:00.386Z,44.80
2018-03-27T10:48:28.810Z,44.70
2018-03-27T10:50:56.507Z,44.20
2018-03-27T10:53:24.106Z,44.00
2018-03-27T10:55:51.733Z,44.10
2018-03-27T10:58:21.132Z,42.60
2018-03-27T11:00:48.712Z,42.40
2018-03-27T11:03:17.244Z,42.30
2018-03-27T11:05:44.830Z,42.20
2018-03-27T11:08:12.447Z,42.70
2018-03-27T11:10:40.015Z,42.20
2018-03-27T11:13:07.606Z,41.90
2018-03-27T11:15:35.649Z,41.50
2018-03-27T11:18:04.209Z,40.80
2018-03-27T11:20:32.137Z,40.70
2018-03-27T11:23:00.733Z,38.40
2018-03-27T11:25:30.146Z,38.20
2018-03-27T11:27:57.732Z,38.10
2018-03-27T11:30:25.411Z,38.20
2018-03-27T11:32:53.073Z,39.20
2018-03-27T11:35:20.671Z,37.30
2018-03-27T11:37:48.253Z,38.10
2018-03-27T11:40:16.610Z,38.70
2018-03-27T11:42:44.456Z,38.60
2018-03-27T11:45:12.448Z,38.60
2018-03-27T11:47:40.285Z,38.00
2018-03-27T11:50:08.998Z,37.90
2018-03-27T11:52:36.642Z,37.70
2018-03-27T11:55:04.256Z,38.10
2018-03-27T11:57:31.940Z,37.60
2018-03-27T11:59:59.526Z,37.80
2018-03-27T12:02:27.132Z,37.80
2018-03-27T12:04:56.315Z,36.40
2018-03-27T12:07:23.908Z,36.60
2018-03-27T12:09:51.491Z,37.20
2018-03-27T12:12:19.852Z,36.90
2018-03-27T12:14:48.227Z,36.90
2018-03-27T12:17:15.870Z,37.00
2018-03-27T12:19:43.460Z,37.20
2018-03-27T12:22:11.066Z,37.40
2018-03-27T12:24:39.442Z,37.40
2018-03-27T12:27:07.812Z,37.00
2018-03-27T12:29:35.416Z,36.60
2018-03-27T12:32:03.170Z,36.40
2018-03-27T12:34:30.831Z,36.90
2018-03-27T12:36:59.341Z,37.00
2018-03-27T12:39:26.953Z,37.10
2018-03-27T12:41:55.368Z,36.30
2018-03-27T12:44:23.705Z,36.40
2018-03-27T12:46:51.288Z,36.30
2018-03-27T12:49:18.874Z,36.00
2018-03-27T12:51:46.446Z,36.40
2018-03-27T12:54:15.354Z,36.40
2018-03-27T12:56:43.792Z,35.70
2018-03-27T12:59:11.395Z,35.50
2018-03-27T13:01:39.339Z,36.00
2018-03-27T13:04:07.312Z,36.00
2018-03-27T13:06:35.416Z,36.10
2018-03-27T13:09:03.656Z,35.80
2018-03-27T13:11:31.355Z,35.90
2018-03-27T13:13:59.431Z,36.10
2018-03-27T13:16:27.066Z,36.30
2018-03-27T13:18:54.636Z,36.40
2018-03-27T13:21:23.129Z,36.30
2018-03-27T13:23:51.836Z,36.10
2018-03-27T13:26:20.738Z,36.50
2018-03-27T13:28:48.778Z,36.40
2018-03-27T13:31:17.835Z,36.70
2018-03-27T13:33:46.765Z,36.10
2018-03-27T13:36:14.946Z,36.00
2018-03-27T13:38:44.978Z,35.80
2018-03-27T13:41:14.514Z,36.00
2018-03-27T13:43:43.362Z,36.20
2018-03-27T13:46:11.701Z,35.40
2018-03-27T13:48:39.710Z,35.70
2018-03-27T13:51:08.664Z,35.80
2018-03-27T13:53:36.913Z,35.70
2018-03-27T13:56:06.384Z,36.30
2018-03-27T13:58:35.498Z,36.80
2018-03-27T14:01:05.784Z,36.90
2018-03-27T14:03:33.673Z,36.80
2018-03-27T14:06:01.299Z,36.80
2018-03-27T14:08:29.678Z,37.30
2018-03-27T14:10:57.774Z,37.20
2018-03-27T14:13:26.042Z,37.40
2018-03-27T14:15:55.984Z,37.30
2018-03-27T14:18:25.580Z,37.20
2018-03-27T14:20:53.754Z,37.50
2018-03-27T14:23:22.841Z,38.20
2018-03-27T14:25:52.407Z,38.10
2018-03-27T14:28:20.812Z,38.30
2018-03-27T14:30:50.093Z,38.50
2018-03-27T14:33:19.845Z,38.80
2018-03-27T14:35:47.505Z,38.80
2018-03-27T14:38:15.122Z,39.20
2018-03-27T14:40:42.714Z,39.70
2018-03-27T14:43:10.712Z,39.90
2018-03-27T14:45:39.610Z,40.70
2018-03-27T14:48:08.588Z,40.80
2018-03-27T14:50:38.536Z,40.70
2018-03-27T14:53:06.548Z,41.20
2018-03-27T14:55:34.784Z,41.30
2018-03-27T14:58:03.774Z,41.80
2018-03-27T15:00:32.117Z,41.80
2018-03-27T15:03:01.127Z,42.10
2018-03-27T15:05:29.332Z,42.10
2018-03-27T15:07:59.148Z,42.30
2018-03-27T15:10:27.978Z,42.30
2018-03-27T15:12:57.082Z,42.20
2018-03-27T15:15:25.209Z,42.50
2018-03-27T15:17:53.216Z,42.40
2018-03-27T15:20:23.204Z,42.60
2018-03-27T15:22:51.228Z,42.60
2018-03-27T15:25:19.020Z,42.80
2018-03-27T15:27:47.661Z,42.90
2018-03-27T15:30:15.284Z,43.10
2018-03-27T15:32:42.887Z,43.10
2018-03-27T15:35:12.115Z,42.80
2018-03-27T15:37:40.383Z,42.80
2018-03-27T15:40:09.390Z,43.10
2018-03-27T15:42:37.055Z,43.10
2018-03-27T15:45:04.660Z,43.00
2018-03-27T15:47:32.687Z,42.90
2018-03-27T15:50:00.312Z,43.00
2018-03-27T15:52:27.983Z,42.80
2018-03-27T15:54:56.643Z,42.70
2018-03-27T15:57:25.039Z,42.90
2018-03-27T15:59:52.722Z,42.90
2018-03-27T16:02:20.314Z,43.10
2018-03-27T16:04:48.685Z,43.20
2018-03-27T16:07:16.314Z,43.10
2018-03-27T16:09:44.139Z,43.20
2018-03-27T16:12:12.494Z,43.40
2018-03-27T16:14:40.342Z,43.00
2018-03-27T16:17:09.295Z,43.10
2018-03-27T16:19:36.863Z,43.10
2018-03-27T16:22:04.464Z,43.10
2018-03-27T16:24:32.854Z,43.00
2018-03-27T16:27:02.085Z,43.10
2018-03-27T16:29:29.675Z,43.00
2018-03-27T16:31:57.379Z,43.10
2018-03-27T16:34:24.992Z,43.30
2018-03-27T16:36:53.486Z,43.80
2018-03-27T16:39:21.069Z,43.70
2018-03-27T16:41:48.652Z,44.30
2018-03-27T16:44:16.292Z,44.70
2018-03-27T16:46:43.928Z,45.00
2018-03-27T16:49:11.508Z,45.40
2018-03-27T16:51:39.269Z,46.50
2018-03-27T16:54:06.899Z,46.90
2018-03-27T16:56:35.334Z,47.40
2018-03-27T16:59:02.934Z,47.40
2018-03-27T17:01:30.567Z,47.40
2018-03-27T17:03:58.211Z,47.80
2018-03-27T17:06:26.586Z,48.20
2018-03-27T17:08:54.943Z,48.50
2018-03-27T17:11:22.620Z,48.40
2018-03-27T17:13:50.257Z,48.70
2018-03-27T17:16:17.848Z,49.10
2018-03-27T17:18:45.554Z,49.30
2018-03-27T17:21:13.155Z,49.60
2018-03-27T17:23:40.965Z,50.00
2018-03-27T17:26:08.592Z,50.30
2018-03-27T17:28:37.058Z,51.20
2018-03-27T17:31:04.686Z,51.00
2018-03-27T17:33:32.319Z,51.30
2018-03-27T17:35:59.936Z,51.40
2018-03-27T17:38:27.555Z,51.60
2018-03-27T17:40:55.125Z,51.80
2018-03-27T17:43:22.790Z,51.90
2018-03-27T17:45:50.497Z,52.00
2018-03-27T17:48:18.097Z,52.20
2018-03-27T17:50:45.943Z,52.50
2018-03-27T17:53:14.379Z,52.90
2018-03-27T17:55:42.325Z,52.80
2018-03-27T17:58:10.027Z,53.10
2018-03-27T18:00:38.206Z,53.20
2018-03-27T18:03:06.388Z,53.30
2018-03-27T18:05:34.607Z,53.40
2018-03-27T18:08:04.648Z,53.50
2018-03-27T18:10:33.451Z,54.00
2018-03-27T18:13:02.383Z,54.00
2018-03-27T18:15:31.508Z,54.00
2018-03-27T18:18:00.095Z,54.00
2018-03-27T18:20:28.359Z,54.20
2018-03-27T18:22:58.107Z,54.40
2018-03-27T18:25:25.748Z,54.30
2018-03-27T18:27:54.112Z,54.40
2018-03-27T18:30:22.220Z,54.50
2018-03-27T18:32:50.637Z,54.60
2018-03-27T18:35:18.240Z,54.50
2018-03-27T18:37:46.577Z,54.70
2018-03-27T18:40:15.683Z,54.70
2018-03-27T18:42:43.328Z,54.70
2018-03-27T18:45:10.925Z,54.80
2018-03-27T18:47:38.993Z,54.90
2018-03-27T18:50:06.576Z,55.00
2018-03-27T18:52:34.152Z,55.00
2018-03-27T18:55:01.832Z,55.10
2018-03-27T18:57:29.531Z,55.10
2018-03-27T18:59:57.488Z,55.30
2018-03-27T19:02:25.340Z,55.40
2018-03-27T19:04:53.021Z,55.50
2018-03-27T19:07:20.639Z,55.60
2018-03-27T19:09:48.261Z,55.80
2018-03-27T19:12:15.850Z,55.80
2018-03-27T19:14:43.425Z,55.90
2018-03-27T19:17:11.053Z,56.00
2018-03-27T19:19:40.374Z,56.10
2018-03-27T19:22:08.115Z,56.00
2018-03-27T19:24:35.700Z,56.10
2018-03-27T19:27:03.285Z,56.20
2018-03-27T19:29:31.690Z,56.50
2018-03-27T19:32:00.052Z,56.60
2018-03-27T19:34:27.622Z,56.50
2018-03-27T19:36:55.187Z,56.50
2018-03-27T19:39:22.760Z,56.70
2018-03-27T19:41:50.324Z,56.70
2018-03-27T19:44:17.934Z,56.80
2018-03-27T19:46:46.267Z,57.00
2018-03-27T19:49:13.910Z,57.00
2018-03-27T19:51:41.508Z,57.10
2018-03-27T19:54:09.136Z,57.30
2018-03-27T19:56:37.534Z,57.50
2018-03-27T19:59:05.950Z,57.50
2018-03-27T20:01:33.560Z,57.40
2018-03-27T20:04:01.916Z,57.70
2018-03-27T20:06:29.500Z,57.90
2018-03-27T20:08:57.592Z,57.70
2018-03-27T20:11:34.843Z,57.70
2018-03-27T20:14:02.643Z,57.60
2018-03-27T20:16:31.174Z,57.70
2018-03-27T20:18:59.119Z,57.80
2018-03-27T20:21:27.090Z,57.90
2018-03-27T20:23:54.863Z,58.00
2018-03-27T20:26:22.907Z,58.00
2018-03-27T20:28:51.412Z,58.10
2018-03-27T20:31:21.075Z,58.20
2018-03-27T20:33:50.059Z,58.20
2018-03-27T20:36:18.880Z,58.10
2018-03-27T20:38:46.803Z,58.30
2018-03-27T20:41:16.458Z,58.40
2018-03-27T20:43:44.140Z,58.30
2018-03-27T20:46:12.508Z,58.50
2018-03-27T20:48:40.106Z,58.40
2018-03-27T20:51:08.538Z,58.50
2018-03-27T20:53:36.197Z,58.50
2018-03-27T20:56:03.790Z,58.50
2018-03-27T20:58:31.418Z,58.40
2018-03-27T21:00:59.750Z,58.80
2018-03-27T21:03:27.342Z,58.60
2018-03-27T21:05:54.997Z,58.70
2018-03-27T21:08:22.756Z,58.70
2018-03-27T21:10:50.343Z,58.70
2018-03-27T21:13:17.915Z,58.70
2018-03-27T21:15:45.488Z,58.60
2018-03-27T21:18:13.112Z,58.80
2018-03-27T21:20:40.739Z,58.80
2018-03-27T21:23:08.359Z,58.80
2018-03-27T21:25:35.986Z,58.90
2018-03-27T21:28:03.642Z,58.90
2018-03-27T21:30:31.242Z,58.90
2018-03-27T21:32:58.870Z,58.90
2018-03-27T21:35:27.802Z,58.90
2018-03-27T21:37:55.423Z,58.90
2018-03-27T21:40:23.846Z,59.20
2018-03-27T21:42:51.530Z,59.20
2018-03-27T21:45:19.186Z,59.20
2018-03-27T21:47:46.820Z,59.40
2018-03-27T21:50:14.425Z,59.40
2018-03-27T21:52:42.823Z,59.60
2018-03-27T21:55:10.548Z,59.60
2018-03-27T21:57:38.414Z,59.70
2018-03-27T22:00:06.782Z,59.80
2018-03-27T22:02:34.435Z,59.90
2018-03-27T22:05:03.350Z,60.20
2018-03-27T22:07:31.116Z,60.10
2018-03-27T22:10:00.150Z,60.40
2018-03-27T22:12:27.864Z,60.40
2018-03-27T22:14:56.348Z,60.40
2018-03-27T22:17:24.003Z,60.40
2018-03-27T22:19:51.658Z,60.50
2018-03-27T22:22:19.316Z,60.70
2018-03-27T22:24:47.059Z,60.90
2018-03-27T22:27:14.688Z,61.00
2018-03-27T22:29:42.257Z,60.70
2018-03-27T22:32:09.823Z,61.40
2018-03-27T22:34:37.491Z,61.40
2018-03-27T22:37:05.157Z,61.30
2018-03-27T22:39:32.752Z,61.50
2018-03-27T22:42:00.325Z,61.60
2018-03-27T22:44:27.888Z,61.50
2018-03-27T22:46:55.479Z,61.50
2018-03-27T22:49:23.361Z,61.40
2018-03-27T22:51:51.532Z,61.30
2018-03-27T22:54:19.217Z,61.20
2018-03-27T22:56:46.864Z,61.30
2018-03-27T22:59:14.458Z,61.40
2018-03-27T23:01:42.051Z,61.30
2018-03-27T23:04:09.639Z,61.50
2018-03-27T23:06:37.256Z,61.40
2018-03-27T23:09:04.839Z,61.50
2018-03-27T23:11:32.495Z,61.50
2018-03-27T23:14:00.816Z,61.80
2018-03-27T23:16:28.497Z,61.70
2018-03-27T23:18:56.092Z,61.50
2018-03-27T23:21:23.799Z,61.60
2018-03-27T23:23:51.452Z,61.60
2018-03-27T23:26:19.806Z,62.00
2018-03-27T23:28:47.378Z,61.90
2018-03-27T23:31:14.984Z,62.00
2018-03-27T23:33:42.624Z,62.10
2018-03-27T23:36:11.021Z,62.00
2018-03-27T23:38:39.531Z,61.80
2018-03-27T23:41:07.103Z,61.90
2018-03-27T23:43:34.692Z,62.00
2018-03-27T23:46:02.282Z,62.00
2018-03-27T23:48:30.639Z,62.30
2018-03-27T23:50:58.263Z,62.10
2018-03-27T23:53:25.869Z,62.30
2018-03-27T23:55:53.478Z,62.30
2018-03-27T23:58:21.079Z,62.40
